Time;durP1;ratioP1;P1;durP2;ratioP2;P2;SDS_P1;SDS_P2;PMS_P1;PMS_P2;Temp;Humidity;BMP_temperature;BMP_pressure;BME280_temperature;BME280_humidity;BME280_pressure;Samples;Min_cycle;Max_cycle;Signal;HPM_P1;HPM_P2
2021/03/22 00:01:47;;;;;;;;;;;19.90;54.90;;;;;;5053835;28;1275;-69
2021/03/22 00:04:13;;;;;;;;;;;19.80;54.80;;;;;;5053410;28;1147;-69
2021/03/22 00:06:38;;;;;;;;;;;19.90;54.90;;;;;;5072133;28;1286;-69
2021/03/22 00:09:04;;;;;;;;;;;19.80;54.90;;;;;;5052442;28;1285;-69
2021/03/22 00:11:29;;;;;;;;;;;19.80;54.90;;;;;;5053775;28;1374;-69
2021/03/22 00:13:54;;;;;;;;;;;19.80;54.90;;;;;;5071895;28;1898;-69
2021/03/22 00:16:20;;;;;;;;;;;19.80;54.90;;;;;;5053687;28;1340;-69
2021/03/22 00:18:45;;;;;;;;;;;19.90;55.00;;;;;;5070305;28;1303;-69
2021/03/22 00:21:11;;;;;;;;;;;19.80;54.90;;;;;;5071846;28;1237;-69
2021/03/22 00:23:37;;;;;;;;;;;19.80;55.00;;;;;;5053751;28;1277;-69
2021/03/22 00:26:02;;;;;;;;;;;19.80;55.00;;;;;;5071411;28;1235;-69
2021/03/22 00:28:28;;;;;;;;;;;19.80;55.00;;;;;;5052504;28;1641;-69
2021/03/22 00:30:53;;;;;;;;;;;19.80;55.00;;;;;;5071172;28;1302;-69
2021/03/22 00:33:19;;;;;;;;;;;19.80;55.00;;;;;;5053084;28;1955;-69
2021/03/22 00:35:44;;;;;;;;;;;19.80;55.00;;;;;;5053662;28;1296;-69
2021/03/22 00:38:10;;;;;;;;;;;19.80;55.10;;;;;;5070059;28;1352;-69
2021/03/22 00:40:36;;;;;;;;;;;19.80;55.10;;;;;;5053347;28;1285;-69
2021/03/22 00:43:02;;;;;;;;;;;19.80;55.10;;;;;;5052980;28;1311;-69
2021/03/22 00:45:27;;;;;;;;;;;19.70;55.00;;;;;;5071404;28;1333;-69
2021/03/22 00:47:53;;;;;;;;;;;19.80;55.10;;;;;;5084456;22;1984;-64
2021/03/22 00:50:29;;;;;;;;;;;19.70;55.00;;;;;;5017207;28;1239;-63
2021/03/22 00:52:54;;;;;;;;;;;19.70;55.10;;;;;;5033914;28;1967;-64
2021/03/22 00:55:20;;;;;;;;;;;19.80;55.10;;;;;;5033819;28;1432;-63
2021/03/22 00:57:45;;;;;;;;;;;19.70;55.10;;;;;;5020088;28;1484;-64
2021/03/22 01:00:16;;;;;;;;;;;19.70;55.10;;;;;;5051620;28;1391;-63
2021/03/22 01:02:41;;;;;;;;;;;19.70;55.10;;;;;;5029632;28;1370;-64
2021/03/22 01:05:07;;;;;;;;;;;19.70;55.10;;;;;;5042128;28;1339;-63
2021/03/22 01:07:32;;;;;;;;;;;19.70;55.10;;;;;;5033089;28;1617;-65
2021/03/22 01:09:58;;;;;;;;;;;19.70;55.20;;;;;;5051548;28;1365;-63
2021/03/22 01:12:23;;;;;;;;;;;19.70;55.20;;;;;;5051073;28;1961;-64
2021/03/22 01:14:49;;;;;;;;;;;19.70;55.20;;;;;;5051340;28;1619;-65
2021/03/22 01:17:14;;;;;;;;;;;19.70;55.20;;;;;;5032960;28;1588;-64
2021/03/22 01:19:40;;;;;;;;;;;19.70;55.20;;;;;;5051103;28;1373;-64
2021/03/22 01:22:05;;;;;;;;;;;19.70;55.20;;;;;;5051038;28;1432;-66
2021/03/22 01:24:33;;;;;;;;;;;19.70;55.20;;;;;;5033367;28;1659;-63
2021/03/22 01:27:02;;;;;;;;;;;19.70;55.20;;;;;;5050938;28;1439;-64
2021/03/22 01:29:32;;;;;;;;;;;19.70;55.20;;;;;;5049888;28;1662;-64
2021/03/22 01:31:59;;;;;;;;;;;19.70;55.30;;;;;;5049954;28;1959;-64
2021/03/22 01:34:25;;;;;;;;;;;19.60;55.20;;;;;;5049770;28;1001;-63
2021/03/22 01:36:50;;;;;;;;;;;19.70;55.30;;;;;;5049973;28;1629;-63
2021/03/22 01:39:17;;;;;;;;;;;19.60;55.20;;;;;;5050550;28;1645;-64
2021/03/22 01:42:03;;;;;;;;;;;19.70;55.30;;;;;;5049797;28;1389;-64
2021/03/22 01:44:30;;;;;;;;;;;19.60;55.20;;;;;;5049552;28;1246;-63
2021/03/22 01:46:56;;;;;;;;;;;19.70;55.30;;;;;;5049808;28;1444;-63
2021/03/22 01:49:22;;;;;;;;;;;19.60;55.30;;;;;;5049191;28;1254;-64
2021/03/22 01:51:48;;;;;;;;;;;19.60;55.30;;;;;;5053352;28;1965;-64
2021/03/22 01:54:13;;;;;;;;;;;19.60;55.30;;;;;;5053275;28;1549;-63
2021/03/22 01:56:39;;;;;;;;;;;19.60;55.30;;;;;;5054490;28;1170;-64
2021/03/22 01:59:04;;;;;;;;;;;19.60;55.30;;;;;;5054221;28;1376;-66
2021/03/22 02:01:30;;;;;;;;;;;19.60;55.30;;;;;;5054570;28;1681;-64
2021/03/22 02:03:55;;;;;;;;;;;19.60;55.30;;;;;;5039618;28;1486;-65
2021/03/22 02:06:21;;;;;;;;;;;19.60;55.30;;;;;;5054340;28;1216;-64
2021/03/22 02:08:46;;;;;;;;;;;19.60;55.30;;;;;;5053727;28;1367;-63
2021/03/22 02:11:16;;;;;;;;;;;19.60;55.40;;;;;;5052827;28;1259;-65
2021/03/22 02:13:41;;;;;;;;;;;19.60;55.40;;;;;;5053602;28;1898;-66
2021/03/22 02:16:08;;;;;;;;;;;19.60;55.40;;;;;;5033530;28;1169;-64
2021/03/22 02:18:40;;;;;;;;;;;19.60;55.40;;;;;;5031857;28;1284;-65
2021/03/22 02:21:15;;;;;;;;;;;19.60;55.40;;;;;;5053937;28;1363;-64
2021/03/22 02:23:52;;;;;;;;;;;19.60;55.40;;;;;;5050655;28;1593;-63
2021/03/22 02:26:36;;;;;;;;;;;19.60;55.40;;;;;;5046417;28;1150;-63
2021/03/22 02:29:07;;;;;;;;;;;19.60;55.40;;;;;;5046562;28;1303;-62
2021/03/22 02:31:33;;;;;;;;;;;19.60;55.40;;;;;;5046178;28;1239;-63
2021/03/22 02:34:14;;;;;;;;;;;19.60;55.40;;;;;;5043415;28;1894;-66
2021/03/22 02:36:52;;;;;;;;;;;19.50;55.40;;;;;;5028173;28;1379;-66
2021/03/22 02:39:17;;;;;;;;;;;19.60;55.40;;;;;;5045507;28;1343;-67
2021/03/22 02:41:47;;;;;;;;;;;19.60;55.40;;;;;;5047666;28;1320;-66
2021/03/22 02:44:17;;;;;;;;;;;19.50;55.40;;;;;;5027339;28;1259;-65
2021/03/22 02:46:43;;;;;;;;;;;19.50;55.40;;;;;;5031693;28;1307;-67
2021/03/22 02:49:11;;;;;;;;;;;19.50;55.40;;;;;;5047630;28;1321;-68
2021/03/22 02:51:43;;;;;;;;;;;19.50;55.40;;;;;;5053926;28;1342;-66
2021/03/22 02:54:15;;;;;;;;;;;19.50;55.40;;;;;;5054511;28;1906;-68
2021/03/22 02:56:48;;;;;;;;;;;19.50;55.40;;;;;;5053234;28;1453;-68
2021/03/22 02:59:15;;;;;;;;;;;19.50;55.40;;;;;;5036253;28;1371;-67
2021/03/22 03:01:42;;;;;;;;;;;19.50;55.50;;;;;;5054172;28;1295;-66
2021/03/22 03:04:08;;;;;;;;;;;19.50;55.50;;;;;;5053123;28;1149;-65
2021/03/22 03:07:00;;;;;;;;;;;19.50;55.50;;;;;;5053199;28;1293;-64
2021/03/22 03:09:26;;;;;;;;;;;19.50;55.60;;;;;;5050795;28;1426;-65
2021/03/22 03:11:52;;;;;;;;;;;19.50;55.50;;;;;;5054396;28;1914;-65
2021/03/22 03:14:18;;;;;;;;;;;19.50;55.50;;;;;;5053079;28;1417;-64
2021/03/22 03:16:44;;;;;;;;;;;19.50;55.50;;;;;;5053065;28;1317;-65
2021/03/22 03:19:09;;;;;;;;;;;19.50;55.50;;;;;;5053811;28;1375;-65
2021/03/22 03:21:35;;;;;;;;;;;19.50;55.50;;;;;;5053753;28;1401;-64
2021/03/22 03:24:00;;;;;;;;;;;19.50;55.50;;;;;;5047261;28;1202;-64
2021/03/22 03:26:26;;;;;;;;;;;19.50;55.50;;;;;;5046398;28;1136;-64
2021/03/22 03:28:51;;;;;;;;;;;19.50;55.50;;;;;;5053660;28;1446;-65
2021/03/22 03:31:17;;;;;;;;;;;19.50;55.60;;;;;;5053902;28;1251;-65
2021/03/22 03:33:43;;;;;;;;;;;19.50;55.60;;;;;;5052458;28;1960;-64
2021/03/22 03:36:08;;;;;;;;;;;19.50;55.50;;;;;;5052271;28;1282;-65
2021/03/22 03:38:34;;;;;;;;;;;19.50;55.50;;;;;;5053757;28;1387;-67
2021/03/22 03:40:59;;;;;;;;;;;19.50;55.60;;;;;;5054160;28;1327;-67
2021/03/22 03:43:25;;;;;;;;;;;19.50;55.60;;;;;;5053786;28;1135;-67
2021/03/22 03:45:51;;;;;;;;;;;19.40;56.10;;;;;;5053832;28;1271;-68
2021/03/22 03:48:17;;;;;;;;;;;19.50;55.50;;;;;;5051731;28;1322;-68
2021/03/22 03:50:43;;;;;;;;;;;19.50;55.40;;;;;;5035591;28;1361;-67
2021/03/22 03:53:09;;;;;;;;;;;19.50;55.40;;;;;;5052243;28;1957;-68
2021/03/22 03:55:34;;;;;;;;;;;19.50;55.40;;;;;;5052421;28;1335;-68
2021/03/22 03:58:00;;;;;;;;;;;19.50;55.30;;;;;;5045910;28;1316;-67
2021/03/22 04:00:36;;;;;;;;;;;19.50;55.30;;;;;;5045950;28;1197;-68
2021/03/22 04:03:15;;;;;;;;;;;19.50;55.20;;;;;;5035290;28;1257;-65
2021/03/22 04:05:40;;;;;;;;;;;19.50;55.20;;;;;;5053311;28;1264;-67
2021/03/22 04:08:06;;;;;;;;;;;19.60;55.20;;;;;;5052927;28;1372;-65
2021/03/22 04:10:31;;;;;;;;;;;19.60;55.20;;;;;;5053074;28;1195;-65
2021/03/22 04:12:57;;;;;;;;;;;19.60;55.10;;;;;;5051129;28;1967;-66
2021/03/22 04:15:23;;;;;;;;;;;19.60;55.10;;;;;;5051874;28;1258;-65
2021/03/22 04:17:48;;;;;;;;;;;19.70;55.00;;;;;;5052370;28;1203;-66
2021/03/22 04:20:14;;;;;;;;;;;19.70;54.90;;;;;;5052990;28;1250;-65
2021/03/22 04:22:39;;;;;;;;;;;19.80;54.80;;;;;;5035157;28;1364;-65
2021/03/22 04:25:05;;;;;;;;;;;20.00;54.70;;;;;;5034881;28;1325;-66
2021/03/22 04:27:30;;;;;;;;;;;20.10;54.50;;;;;;5051488;28;1376;-66
2021/03/22 04:29:56;;;;;;;;;;;20.20;54.20;;;;;;5052760;28;1279;-68
2021/03/22 04:32:21;;;;;;;;;;;20.30;54.00;;;;;;5051526;28;1910;-68
2021/03/22 04:34:47;;;;;;;;;;;20.50;53.80;;;;;;5052639;28;1371;-68
2021/03/22 04:37:12;;;;;;;;;;;20.50;53.50;;;;;;5051739;28;1283;-68
2021/03/22 04:39:38;;;;;;;;;;;20.60;53.30;;;;;;5052637;28;1276;-68
2021/03/22 04:42:03;;;;;;;;;;;20.70;53.10;;;;;;5052841;28;1064;-67
2021/03/22 04:44:29;;;;;;;;;;;20.80;52.90;;;;;;5052487;28;1058;-68
2021/03/22 04:46:54;;;;;;;;;;;20.90;52.70;;;;;;5052734;28;1350;-68
2021/03/22 04:49:20;;;;;;;;;;;20.90;52.50;;;;;;5052122;28;1293;-67
2021/03/22 04:51:45;;;;;;;;;;;21.10;52.50;;;;;;5051491;28;1304;-68
2021/03/22 04:54:10;;;;;;;;;;;21.10;52.30;;;;;;5052629;28;1910;-68
2021/03/22 04:56:36;;;;;;;;;;;21.10;52.10;;;;;;5052914;28;1151;-67
2021/03/22 04:59:01;;;;;;;;;;;21.20;52.00;;;;;;5052587;28;1330;-68
2021/03/22 05:01:27;;;;;;;;;;;21.20;51.90;;;;;;5052664;28;1387;-68
2021/03/22 05:03:52;;;;;;;;;;;21.30;51.80;;;;;;5052910;28;1151;-67
2021/03/22 05:06:18;;;;;;;;;;;21.30;51.70;;;;;;5051952;28;1262;-67
2021/03/22 05:08:43;;;;;;;;;;;21.40;51.70;;;;;;5051884;28;1369;-68
2021/03/22 05:11:09;;;;;;;;;;;21.40;51.70;;;;;;5051670;28;1286;-67
2021/03/22 05:13:34;;;;;;;;;;;21.40;51.60;;;;;;5049626;28;1949;-68
2021/03/22 05:16:00;;;;;;;;;;;21.40;51.50;;;;;;5050587;28;1315;-66
2021/03/22 05:18:26;;;;;;;;;;;21.50;51.50;;;;;;5051244;28;1355;-66
2021/03/22 05:20:55;;;;;;;;;;;21.50;51.50;;;;;;5050862;28;1292;-66
2021/03/22 05:23:22;;;;;;;;;;;21.50;51.40;;;;;;5052884;28;1326;-66
2021/03/22 05:25:47;;;;;;;;;;;21.50;51.40;;;;;;5054893;28;1309;-67
2021/03/22 05:28:13;;;;;;;;;;;21.50;51.40;;;;;;5038074;28;1326;-67
2021/03/22 05:30:38;;;;;;;;;;;21.50;51.40;;;;;;5056332;28;1410;-68
2021/03/22 05:33:05;;;;;;;;;;;21.50;51.30;;;;;;5055948;28;1959;-68
2021/03/22 05:35:30;;;;;;;;;;;21.50;51.30;;;;;;5055069;28;1340;-69
2021/03/22 05:37:56;;;;;;;;;;;21.50;51.40;;;;;;5055606;28;1371;-66
2021/03/22 05:40:32;;;;;;;;;;;21.50;51.40;;;;;;5056139;28;1290;-65
2021/03/22 05:43:14;;;;;;;;;;;21.50;51.40;;;;;;5054786;28;1311;-65
2021/03/22 05:45:58;;;;;;;;;;;21.50;51.40;;;;;;5054796;28;1272;-65
2021/03/22 05:48:23;;;;;;;;;;;21.50;51.50;;;;;;5055312;28;1211;-65
2021/03/22 05:51:01;;;;;;;;;;;21.50;51.50;;;;;;5055903;28;1390;-67
2021/03/22 05:53:45;;;;;;;;;;;21.50;51.60;;;;;;5054550;28;1906;-67
2021/03/22 05:56:14;;;;;;;;;;;21.50;51.60;;;;;;5055748;28;1332;-67
2021/03/22 05:58:42;;;;;;;;;;;21.50;51.60;;;;;;5037478;28;1390;-68
2021/03/22 06:01:19;;;;;;;;;;;21.50;51.70;;;;;;5055731;28;1544;-66
2021/03/22 06:03:51;;;;;;;;;;;21.40;51.70;;;;;;5054263;28;1100;-66
2021/03/22 06:06:18;;;;;;;;;;;21.40;51.70;;;;;;5037710;28;1344;-67
2021/03/22 06:09:01;;;;;;;;;;;21.40;51.80;;;;;;5037188;28;1282;-68
2021/03/22 06:11:38;;;;;;;;;;;21.40;51.90;;;;;;5037784;28;1363;-68
2021/03/22 06:14:06;;;;;;;;;;;21.40;51.90;;;;;;5037434;28;1967;-67
2021/03/22 06:16:33;;;;;;;;;;;21.30;51.90;;;;;;5055295;28;1289;-67
2021/03/22 06:19:00;;;;;;;;;;;21.40;52.00;;;;;;5020376;28;1302;-66
2021/03/22 06:21:25;;;;;;;;;;;21.30;52.00;;;;;;5037680;28;1336;-66
2021/03/22 06:23:51;;;;;;;;;;;21.30;52.10;;;;;;5037454;28;1316;-66
2021/03/22 06:26:36;;;;;;;;;;;21.30;52.20;;;;;;5037578;28;1371;-67
2021/03/22 06:29:03;;;;;;;;;;;21.20;52.20;;;;;;5054497;28;1303;-67
2021/03/22 06:31:29;;;;;;;;;;;21.20;52.20;;;;;;5037549;28;1571;-67
2021/03/22 06:33:58;;;;;;;;;;;21.20;52.30;;;;;;5037118;28;1902;-66
2021/03/22 06:36:23;;;;;;;;;;;21.20;52.30;;;;;;5036455;28;1270;-67
2021/03/22 06:38:52;;;;;;;;;;;21.20;52.40;;;;;;5054920;28;1280;-67
2021/03/22 06:41:37;;;;;;;;;;;21.10;52.40;;;;;;5037219;28;1154;-67
2021/03/22 06:44:22;;;;;;;;;;;21.10;52.40;;;;;;5054949;28;1382;-67
2021/03/22 06:46:58;;;;;;;;;;;21.10;52.50;;;;;;5053158;28;1406;-66
2021/03/22 06:49:25;;;;;;;;;;;21.10;52.50;;;;;;5061061;23;3685;-69
2021/03/22 06:52:20;;;;;;;;;;;21.10;52.60;;;;;;5038357;28;1798;-68
2021/03/22 06:54:53;;;;;;;;;;;21.10;52.60;;;;;;5058512;28;1494;-69
2021/03/22 06:57:22;;;;;;;;;;;21.00;52.60;;;;;;5069946;28;1640;-69
2021/03/22 07:00:05;;;;;;;;;;;21.00;52.70;;;;;;5036947;28;1579;-69
2021/03/22 07:02:38;;;;;;;;;;;21.00;52.70;;;;;;5032943;28;1593;-69
2021/03/22 07:05:16;;;;;;;;;;;21.00;52.80;;;;;;5033578;28;1675;-69
2021/03/22 07:07:54;;;;;;;;;;;20.90;52.80;;;;;;5034428;28;1468;-69
2021/03/22 07:10:19;;;;;;;;;;;20.90;52.80;;;;;;5034796;28;1655;-70
2021/03/22 07:12:45;;;;;;;;;;;20.90;52.80;;;;;;5034218;28;1898;-70
2021/03/22 07:15:13;;;;;;;;;;;20.90;52.90;;;;;;5034417;28;1352;-71
2021/03/22 07:17:38;;;;;;;;;;;20.90;52.90;;;;;;5033174;28;1890;-70
2021/03/22 07:20:14;;;;;;;;;;;20.80;52.90;;;;;;5027744;28;1203;-65
2021/03/22 07:22:39;;;;;;;;;;;20.80;53.00;;;;;;5033030;28;1362;-66
2021/03/22 07:25:23;;;;;;;;;;;20.80;53.00;;;;;;5034521;28;1380;-65
2021/03/22 07:27:50;;;;;;;;;;;20.80;53.10;;;;;;5033943;28;1818;-67
2021/03/22 07:30:24;;;;;;;;;;;20.80;53.10;;;;;;5033098;28;1715;-68
2021/03/22 07:32:59;;;;;;;;;;;20.80;53.20;;;;;;5034195;28;1890;-67
2021/03/22 07:35:27;;;;;;;;;;;20.80;53.20;;;;;;5033075;28;1708;-66
2021/03/22 07:37:59;;;;;;;;;;;20.80;53.20;;;;;;5033417;28;1348;-66
2021/03/22 07:40:26;;;;;;;;;;;20.80;53.30;;;;;;5033026;28;1858;-68
2021/03/22 07:43:12;;;;;;;;;;;20.70;53.30;;;;;;5032892;28;1387;-67
2021/03/22 07:45:56;;;;;;;;;;;20.70;53.30;;;;;;5032876;28;1601;-68
2021/03/22 07:48:25;;;;;;;;;;;20.70;53.30;;;;;;5032900;28;1667;-69
2021/03/22 07:50:51;;;;;;;;;;;20.70;53.40;;;;;;5033721;28;1653;-70
2021/03/22 07:53:23;;;;;;;;;;;20.70;53.40;;;;;;5031146;28;1914;-69
2021/03/22 07:55:50;;;;;;;;;;;20.70;53.40;;;;;;5032469;28;1606;-69
2021/03/22 07:58:42;;;;;;;;;;;20.60;53.40;;;;;;5032239;28;1724;-69
2021/03/22 08:01:14;;;;;;;;;;;20.60;53.40;;;;;;5033303;28;1882;-68
2021/03/22 08:03:58;;;;;;;;;;;20.60;53.50;;;;;;5032532;28;1409;-69
2021/03/22 08:06:28;;;;;;;;;;;20.60;53.50;;;;;;5033467;28;1560;-68
2021/03/22 08:08:53;;;;;;;;;;;20.60;53.50;;;;;;5032058;28;1534;-68
2021/03/22 08:11:19;;;;;;;;;;;20.60;53.60;;;;;;5033331;28;1650;-68
2021/03/22 08:13:49;;;;;;;;;;;20.60;53.60;;;;;;5032196;28;1959;-68
2021/03/22 08:16:36;;;;;;;;;;;20.50;53.60;;;;;;5032243;28;1774;-70
2021/03/22 08:19:03;;;;;;;;;;;20.50;53.60;;;;;;5026129;28;1438;-70
2021/03/22 08:21:31;;;;;;;;;;;20.50;53.70;;;;;;5031856;28;1722;-70
2021/03/22 08:23:58;;;;;;;;;;;20.50;53.70;;;;;;5032104;28;1686;-70
2021/03/22 08:26:28;;;;;;;;;;;20.50;53.70;;;;;;5031921;28;1386;-70
2021/03/22 08:29:09;;;;;;;;;;;20.50;53.70;;;;;;5031851;28;1595;-70
2021/03/22 08:31:45;;;;;;;;;;;20.50;53.80;;;;;;5033158;28;1642;-70
2021/03/22 08:34:19;;;;;;;;;;;20.50;53.80;;;;;;5031917;28;1957;-69
2021/03/22 08:36:47;;;;;;;;;;;20.50;53.80;;;;;;5031700;28;1673;-69
2021/03/22 08:39:16;;;;;;;;;;;20.40;53.80;;;;;;5031730;28;1436;-70
2021/03/22 08:41:59;;;;;;;;;;;20.50;53.90;;;;;;5032827;28;1415;-68
2021/03/22 08:44:42;;;;;;;;;;;20.50;53.90;;;;;;5033088;28;1600;-69
2021/03/22 08:47:19;;;;;;;;;;;20.40;53.90;;;;;;5031381;28;1603;-68
2021/03/22 08:49:47;;;;;;;;;;;20.40;53.90;;;;;;5032827;28;1555;-68
2021/03/22 08:52:15;;;;;;;;;;;20.40;53.90;;;;;;5014974;28;1961;-68
2021/03/22 08:54:41;;;;;;;;;;;20.40;54.00;;;;;;5031830;28;1692;-68
2021/03/22 08:57:09;;;;;;;;;;;20.40;54.00;;;;;;5031048;28;1658;-68
2021/03/22 08:59:34;;;;;;;;;;;20.40;54.00;;;;;;5052859;28;1739;-69
2021/03/22 09:02:09;;;;;;;;;;;20.40;54.00;;;;;;5036925;28;1609;-69
2021/03/22 09:04:35;;;;;;;;;;;20.40;54.10;;;;;;5054608;28;1646;-69
2021/03/22 09:07:09;;;;;;;;;;;20.40;54.10;;;;;;5038264;28;1356;-69
2021/03/22 09:09:35;;;;;;;;;;;20.30;54.00;;;;;;5039126;28;1644;-70
2021/03/22 09:12:07;;;;;;;;;;;20.30;54.10;;;;;;5038227;28;1969;-69
2021/03/22 09:14:38;;;;;;;;;;;20.40;54.10;;;;;;5038123;28;1671;-69
2021/03/22 09:17:04;;;;;;;;;;;20.30;54.20;;;;;;5037919;28;1682;-69
2021/03/22 09:19:39;;;;;;;;;;;20.30;54.20;;;;;;5037844;28;1488;-69
2021/03/22 09:22:04;;;;;;;;;;;20.30;54.20;;;;;;5038104;28;1636;-69
2021/03/22 09:24:43;;;;;;;;;;;20.30;54.20;;;;;;5039251;28;1826;-69
2021/03/22 09:27:21;;;;;;;;;;;20.30;54.20;;;;;;5037666;28;1577;-69
2021/03/22 09:29:50;;;;;;;;;;;20.30;54.20;;;;;;5039000;28;1767;-68
2021/03/22 09:32:25;;;;;;;;;;;20.30;54.30;;;;;;5021442;28;1985;-69
2021/03/22 09:34:57;;;;;;;;;;;20.30;54.30;;;;;;5039062;28;1167;-70
2021/03/22 09:37:42;;;;;;;;;;;20.30;54.30;;;;;;5038937;28;1221;-70
2021/03/22 09:40:12;;;;;;;;;;;20.30;54.30;;;;;;5039113;28;1744;-69
2021/03/22 09:42:38;;;;;;;;;;;20.20;54.30;;;;;;5021281;28;1823;-69
2021/03/22 09:45:15;;;;;;;;;;;20.20;54.30;;;;;;5037442;28;1379;-71
2021/03/22 09:47:40;;;;;;;;;;;20.20;54.30;;;;;;5036890;28;1603;-71
2021/03/22 09:50:11;;;;;;;;;;;20.20;54.30;;;;;;5039032;28;1433;-70
2021/03/22 09:52:40;;;;;;;;;;;20.20;54.30;;;;;;5038859;28;1902;-71
2021/03/22 09:55:24;;;;;;;;;;;20.20;54.30;;;;;;5037745;28;1369;-71
2021/03/22 09:57:50;;;;;;;;;;;20.20;54.40;;;;;;5038268;28;1531;-71
2021/03/22 10:00:18;;;;;;;;;;;20.20;54.40;;;;;;5037706;28;1401;-71
2021/03/22 10:02:44;;;;;;;;;;;20.20;54.40;;;;;;5035623;28;1347;-71
2021/03/22 10:05:14;;;;;;;;;;;20.20;54.40;;;;;;5039109;28;1674;-72
2021/03/22 10:07:40;;;;;;;;;;;20.20;54.50;;;;;;5037008;28;1688;-69
2021/03/22 10:10:19;;;;;;;;;;;20.20;54.50;;;;;;5036807;28;1639;-69
2021/03/22 10:12:50;;;;;;;;;;;20.10;54.50;;;;;;5035127;28;1906;-71
2021/03/22 10:15:21;;;;;;;;;;;20.10;54.50;;;;;;5035839;28;1686;-69
2021/03/22 10:17:47;;;;;;;;;;;20.10;54.50;;;;;;5031948;28;1635;-68
2021/03/22 10:20:26;;;;;;;;;;;20.10;54.50;;;;;;5030412;28;1597;-68
2021/03/22 10:23:02;;;;;;;;;;;20.10;54.50;;;;;;5034169;28;1354;-68
2021/03/22 10:25:28;;;;;;;;;;;20.10;54.50;;;;;;5034371;28;1441;-68
2021/03/22 10:28:04;;;;;;;;;;;20.10;54.50;;;;;;5033794;28;1586;-68
2021/03/22 10:30:30;;;;;;;;;;;20.10;54.60;;;;;;5034160;28;1646;-68
2021/03/22 10:32:56;;;;;;;;;;;20.10;54.60;;;;;;5033882;28;1951;-68
2021/03/22 10:35:22;;;;;;;;;;;20.10;54.60;;;;;;5034193;28;1448;-68
2021/03/22 10:37:48;;;;;;;;;;;20.10;54.60;;;;;;5033531;28;1291;-67
2021/03/22 10:40:16;;;;;;;;;;;20.10;54.60;;;;;;5017639;28;1446;-68
2021/03/22 10:42:41;;;;;;;;;;;20.10;54.60;;;;;;5034109;28;1620;-68
2021/03/22 10:45:26;;;;;;;;;;;20.10;54.60;;;;;;5035190;28;1252;-68
2021/03/22 10:47:51;;;;;;;;;;;20.10;54.60;;;;;;5034673;28;1695;-71
2021/03/22 10:50:23;;;;;;;;;;;20.10;54.60;;;;;;5026462;28;1220;-70
2021/03/22 10:53:07;;;;;;;;;;;20.10;54.60;;;;;;5029431;28;1910;-72
2021/03/22 10:55:34;;;;;;;;;;;20.10;54.60;;;;;;5030282;28;1615;-71
2021/03/22 10:57:59;;;;;;;;;;;20.10;54.60;;;;;;5042063;28;1563;-72
2021/03/22 11:00:35;;;;;;;;;;;20.10;54.50;;;;;;5008524;28;1717;-70
2021/03/22 11:03:04;;;;;;;;;;;20.10;55.10;;;;;;5045567;28;1549;-70
2021/03/22 11:05:33;;;;;;;;;;;20.10;54.40;;;;;;5028814;28;1251;-69
2021/03/22 11:08:01;;;;;;;;;;;20.10;54.40;;;;;;5024837;28;1279;-70
2021/03/22 11:10:27;;;;;;;;;;;20.10;54.40;;;;;;5026750;28;1332;-69
2021/03/22 11:12:53;;;;;;;;;;;20.10;54.30;;;;;;5026675;28;1906;-69
2021/03/22 11:15:38;;;;;;;;;;;20.00;54.20;;;;;;5023569;28;1526;-71
2021/03/22 11:18:11;;;;;;;;;;;20.10;54.30;;;;;;5026226;28;1963;-71
2021/03/22 11:20:40;;;;;;;;;;;20.00;54.20;;;;;;5025510;28;1517;-71
2021/03/22 11:23:13;;;;;;;;;;;20.00;54.10;;;;;;5021531;28;1305;-70
2021/03/22 11:25:38;;;;;;;;;;;20.00;54.10;;;;;;5026164;28;1609;-70
2021/03/22 11:28:13;;;;;;;;;;;20.00;54.10;;;;;;5023002;28;1453;-72
2021/03/22 11:30:40;;;;;;;;;;;20.00;54.10;;;;;;5028382;28;1853;-70
2021/03/22 11:33:08;;;;;;;;;;;20.00;54.10;;;;;;5025226;28;1995;-71
2021/03/22 11:35:34;;;;;;;;;;;20.00;54.20;;;;;;5023960;28;1321;-70
2021/03/22 11:38:02;;;;;;;;;;;20.00;54.20;;;;;;5024293;28;1386;-70
2021/03/22 11:40:28;;;;;;;;;;;20.00;54.20;;;;;;5023318;28;1240;-73
2021/03/22 11:43:17;;;;;;;;;;;20.00;54.20;;;;;;5040314;28;1368;-73
2021/03/22 11:45:45;;;;;;;;;;;20.00;54.20;;;;;;5021525;28;1372;-72
2021/03/22 11:48:28;;;;;;;;;;;20.00;54.20;;;;;;5020367;28;1302;-71
2021/03/22 11:50:53;;;;;;;;;;;20.00;54.20;;;;;;5023516;28;1396;-70
2021/03/22 11:53:20;;;;;;;;;;;19.90;54.20;;;;;;5023141;28;1961;-69
2021/03/22 11:55:45;;;;;;;;;;;19.90;54.20;;;;;;5036204;28;1279;-70
2021/03/22 11:58:30;;;;;;;;;;;19.90;54.30;;;;;;5030746;28;1385;-70
2021/03/22 12:00:55;;;;;;;;;;;19.90;54.30;;;;;;5025815;28;1497;-69
2021/03/22 12:03:25;;;;;;;;;;;19.90;54.30;;;;;;5008718;28;1610;-69
2021/03/22 12:06:02;;;;;;;;;;;19.90;54.30;;;;;;5031871;28;1350;-71
2021/03/22 12:08:35;;;;;;;;;;;19.90;54.40;;;;;;5024091;28;1356;-70
2021/03/22 12:11:01;;;;;;;;;;;19.90;54.40;;;;;;5041799;28;1517;-69
2021/03/22 12:13:26;;;;;;;;;;;19.90;54.40;;;;;;5021834;28;1906;-70
2021/03/22 12:15:52;;;;;;;;;;;19.90;54.40;;;;;;5024899;28;1659;-72
2021/03/22 12:18:37;;;;;;;;;;;19.90;54.40;;;;;;5023741;28;1632;-71
2021/03/22 12:21:04;;;;;;;;;;;19.80;54.40;;;;;;5033032;28;1512;-71
2021/03/22 12:23:29;;;;;;;;;;;19.80;54.40;;;;;;5047204;28;1601;-70
2021/03/22 12:25:55;;;;;;;;;;;19.80;54.40;;;;;;5037963;28;1838;-70
2021/03/22 12:28:20;;;;;;;;;;;19.80;54.50;;;;;;5045169;28;1368;-66
2021/03/22 12:30:46;;;;;;;;;;;19.90;54.50;;;;;;5032304;28;1359;-67
2021/03/22 12:33:19;;;;;;;;;;;19.80;54.50;;;;;;5031425;28;2024;-66
2021/03/22 12:35:44;;;;;;;;;;;19.80;54.50;;;;;;5030609;28;1601;-68
2021/03/22 12:38:10;;;;;;;;;;;19.80;54.50;;;;;;5020923;28;1665;-68
2021/03/22 12:40:35;;;;;;;;;;;19.80;54.50;;;;;;5031086;28;1446;-70
2021/03/22 12:43:01;;;;;;;;;;;19.80;54.50;;;;;;5032090;28;1642;-69
2021/03/22 12:45:29;;;;;;;;;;;19.80;54.50;;;;;;5030858;28;1618;-69
2021/03/22 12:47:55;;;;;;;;;;;19.80;54.50;;;;;;5013733;28;1584;-69
2021/03/22 12:50:25;;;;;;;;;;;19.80;54.40;;;;;;5031997;28;1232;-68
2021/03/22 12:52:51;;;;;;;;;;;19.80;54.40;;;;;;5030549;28;1906;-69
2021/03/22 12:55:16;;;;;;;;;;;19.80;54.40;;;;;;5030771;28;1276;-69
2021/03/22 12:57:42;;;;;;;;;;;19.80;54.30;;;;;;5030271;28;1302;-70
2021/03/22 13:00:07;;;;;;;;;;;19.90;54.10;;;;;;5031889;28;1353;-70
2021/03/22 13:02:33;;;;;;;;;;;19.90;54.00;;;;;;5027507;28;1447;-69
2021/03/22 13:04:59;;;;;;;;;;;20.00;53.80;;;;;;5013595;28;1124;-70
2021/03/22 13:07:24;;;;;;;;;;;20.10;53.70;;;;;;5031131;28;1341;-68
2021/03/22 13:09:49;;;;;;;;;;;20.10;53.50;;;;;;5031665;28;1012;-68
2021/03/22 13:12:20;;;;;;;;;;;20.20;53.30;;;;;;5030270;28;1976;-69
2021/03/22 13:14:45;;;;;;;;;;;20.20;53.10;;;;;;5031763;28;1181;-70
2021/03/22 13:17:14;;;;;;;;;;;20.30;53.00;;;;;;5029805;28;1843;-68
2021/03/22 13:19:39;;;;;;;;;;;20.40;52.90;;;;;;5028755;28;1769;-69
2021/03/22 13:22:06;;;;;;;;;;;20.40;52.80;;;;;;5031463;28;1044;-68
2021/03/22 13:24:31;;;;;;;;;;;20.50;52.70;;;;;;5030152;28;1300;-67
2021/03/22 13:26:57;;;;;;;;;;;20.50;52.60;;;;;;5031415;28;1110;-68
2021/03/22 13:29:22;;;;;;;;;;;20.60;52.60;;;;;;5031151;28;1201;-68
2021/03/22 13:31:48;;;;;;;;;;;20.60;52.50;;;;;;5031378;28;1257;-67
2021/03/22 13:34:13;;;;;;;;;;;20.60;52.30;;;;;;5031020;28;1951;-68
2021/03/22 13:36:39;;;;;;;;;;;20.70;52.20;;;;;;5046723;28;1257;-68
2021/03/22 13:39:04;;;;;;;;;;;20.70;52.20;;;;;;5031270;28;1314;-68
2021/03/22 13:41:30;;;;;;;;;;;20.70;52.10;;;;;;5031122;28;1232;-70
2021/03/22 13:43:56;;;;;;;;;;;20.80;52.10;;;;;;5031583;28;1274;-70
2021/03/22 13:46:22;;;;;;;;;;;20.80;52.00;;;;;;5033542;28;1356;-70
2021/03/22 13:48:48;;;;;;;;;;;20.80;52.00;;;;;;5034377;28;1350;-70
2021/03/22 13:51:14;;;;;;;;;;;20.80;51.90;;;;;;5024427;28;1177;-70
2021/03/22 13:53:40;;;;;;;;;;;20.80;51.90;;;;;;5012224;28;1991;-70
2021/03/22 13:56:05;;;;;;;;;;;20.80;51.90;;;;;;5027480;28;1197;-73
2021/03/22 13:58:31;;;;;;;;;;;20.80;51.80;;;;;;5027112;28;1383;-74
2021/03/22 14:00:56;;;;;;;;;;;20.90;51.80;;;;;;5030632;28;1208;-72
2021/03/22 14:03:22;;;;;;;;;;;20.90;51.80;;;;;;5027260;28;1176;-69
2021/03/22 14:05:47;;;;;;;;;;;20.90;51.80;;;;;;5026033;28;1185;-71
2021/03/22 14:08:13;;;;;;;;;;;20.90;51.80;;;;;;5025705;28;1370;-70
2021/03/22 14:10:39;;;;;;;;;;;20.90;51.70;;;;;;5025241;28;1224;-72
2021/03/22 14:13:04;;;;;;;;;;;20.90;51.70;;;;;;5025711;28;1906;-72
2021/03/22 14:15:32;;;;;;;;;;;20.90;51.60;;;;;;5026792;28;1140;-72
2021/03/22 14:17:58;;;;;;;;;;;20.90;51.60;;;;;;5022711;28;1369;-72
2021/03/22 14:20:23;;;;;;;;;;;20.90;51.60;;;;;;5034271;28;1112;-71
2021/03/22 14:22:48;;;;;;;;;;;21.00;51.60;;;;;;5034400;28;1065;-71
2021/03/22 14:25:15;;;;;;;;;;;21.00;51.60;;;;;;5034249;28;1081;-71
2021/03/22 14:27:40;;;;;;;;;;;21.00;51.60;;;;;;5032966;28;1442;-71
2021/03/22 14:30:07;;;;;;;;;;;21.00;51.60;;;;;;5033143;28;1280;-72
2021/03/22 14:32:32;;;;;;;;;;;21.00;51.50;;;;;;5032745;28;1890;-71
2021/03/22 14:34:57;;;;;;;;;;;21.00;51.50;;;;;;5034289;28;1280;-71
2021/03/22 14:37:23;;;;;;;;;;;21.00;51.50;;;;;;5033878;28;1389;-71
2021/03/22 14:39:48;;;;;;;;;;;21.00;51.50;;;;;;5031872;28;1359;-69
2021/03/22 14:42:14;;;;;;;;;;;21.00;51.50;;;;;;5027001;28;1121;-69